Keytesville, Missouri
Current Conditions -  °F | °C
As of 10:55 AM on Sunday 21 Dec 2014 (Local Time) from KVER Reporting Station
Overcast Overcast  
Wind Chill:   Ceiling: 4000
Heat Index:   Visibility: 10mi
Dew Point:   Wind: 14mph
Humidity: 80%   Direction: 160°SSE
Pressure: 30.05"   Gusts: 20mph
Location:  39.43°N, 92.94°W
Report Text: KVER 211655Z AUTO 16012G17KT 10SM SCT027 OVC040 07/04 A3005 RMK AO2 T00710038
Loading
Personal Weather Stations






























Interactive Weather Map New forecast layout! Learn more

10-Day Weather Forecast

Advertisements
Track Severe Weather on mobile